This is the latest recevied weather packets stored in our database for station/object N2RDT. If no packets are shown the sender has not sent any weather packets the latest 10 day(s).
| Time | Temp. | Humidity | Pressure | Rain* | Wind** | Luminosity | Snow |
|---|---|---|---|---|---|---|---|
| 1777914498 | 23.33° C | 36% | 1016.2 hPa | 0 mm | - | 956 W/m² | - |
| 1777914195 | 22.78° C | 40% | 1016.1 hPa | 0 mm | - | 956 W/m² | - |
| 1777913891 | 22.78° C | 40% | 1016.1 hPa | 0 mm | - | 956 W/m² | - |
| 1777913588 | 22.78° C | 35% | 1016.2 hPa | 0 mm | - | 952 W/m² | - |
| 1777913284 | 22.78° C | 38% | 1016.3 hPa | 0 mm | - | 953 W/m² | - |
| 1777912981 | 23.33° C | 35% | 1016.3 hPa | 0 mm | - | 946 W/m² | - |
| 1777912677 | 22.78° C | 41% | 1016.3 hPa | 0 mm | - | 952 W/m² | - |
| 1777912373 | 22.78° C | 36% | 1016.4 hPa | 0 mm | - | 947 W/m² | - |
| 1777912069 | 22.78° C | 40% | 1016.5 hPa | 0 mm | - | 939 W/m² | - |
| 1777911765 | 22.78° C | 42% | 1016.6 hPa | 0 mm | - | 938 W/m² | - |
| 1777911462 | 22.22° C | 42% | 1016.6 hPa | 0 mm | - | 932 W/m² | - |
| 1777911159 | 22.22° C | 41% | 1016.7 hPa | 0 mm | - | 931 W/m² | - |
| 1777910857 | 22.22° C | 46% | 1016.9 hPa | 0 mm | - | 924 W/m² | - |
| 1777910553 | 21.67° C | 45% | 1016.7 hPa | 0 mm | - | 919 W/m² | - |
| 1777910251 | 21.67° C | 45% | 1016.9 hPa | 0 mm | - | 912 W/m² | - |
| 1777909947 | 21.67° C | 47% | 1017 hPa | 0 mm | - | 906 W/m² | - |
| 1777909644 | 21.11° C | 49% | 1017.2 hPa | 0 mm | - | 897 W/m² | - |
| 1777909342 | 20.56° C | 48% | 1017.2 hPa | 0 mm | - | 887 W/m² | - |
| 1777909039 | 21.11° C | 48% | 1016.9 hPa | 0 mm | - | 873 W/m² | - |
| 1777908737 | 21.11° C | 49% | 1017.1 hPa | 0 mm | - | 867 W/m² | - |
| 1777908434 | 21.11° C | 51% | 1017.2 hPa | 0 mm | - | 857 W/m² | - |
| 1777908130 | 21.11° C | 48% | 1017.1 hPa | 0 mm | - | 850 W/m² | - |
| 1777907826 | 20.56° C | 52% | 1017 hPa | 0 mm | - | 835 W/m² | - |
| 1777907522 | 19.44° C | 55% | 1017 hPa | 0 mm | - | 832 W/m² | - |
| 1777907218 | 20.56° C | 48% | 1017.3 hPa | 0 mm | - | 819 W/m² | - |
* Rain latest hour (hover to see other rain measurements)
** Current wind speed in m/s (hover to see current wind gust speed)